Time;durP1;ratioP1;P1;durP2;ratioP2;P2;SDS_P1;SDS_P2;PMS_P1;PMS_P2;Temp;Humidity;BMP_temperature;BMP_pressure;BME280_temperature;BME280_humidity;BME280_pressure;Samples;Min_cycle;Max_cycle;Signal;HPM_P1;HPM_P2
2024/01/29 05:00:30;;;;;;;1.20;1.10;;;-1.30;97.30;;;;;;6045989;23;21317;-71
2024/01/29 05:02:56;;;;;;;1.10;1.00;;;-1.30;97.30;;;;;;5007582;28;20444;-69
2024/01/29 05:05:21;;;;;;;1.00;0.90;;;-1.20;97.30;;;;;;5008972;28;20211;-69
2024/01/29 05:07:47;;;;;;;10.33;1.63;;;-1.30;97.30;;;;;;5021739;28;20180;-69
2024/01/29 05:10:12;;;;;;;1.40;1.30;;;-1.40;97.30;;;;;;5007554;28;20618;-69
2024/01/29 05:12:39;;;;;;;1.07;0.97;;;-1.40;97.30;;;;;;5002678;28;20217;-69
2024/01/29 05:15:05;;;;;;;1.27;1.17;;;-1.50;97.30;;;;;;5000803;28;20770;-69
2024/01/29 05:17:30;;;;;;;1.90;1.83;;;-1.60;97.30;;;;;;4995083;28;20620;-69
2024/01/29 05:19:56;;;;;;;1.00;0.90;;;-1.60;97.30;;;;;;4995729;28;20432;-69
2024/01/29 05:22:22;;;;;;;1.67;1.57;;;-1.70;97.30;;;;;;4999543;28;20218;-69
2024/01/29 05:24:47;;;;;;;5.47;2.13;;;-1.60;97.30;;;;;;4988350;28;20210;-69
2024/01/29 05:27:28;;;;;;;4.63;3.33;;;-1.60;97.30;;;;;;4997540;28;20436;-69
2024/01/29 05:29:54;;;;;;;2.30;1.43;;;-1.50;97.30;;;;;;4996492;28;20181;-69
2024/01/29 05:32:19;;;;;;;11.83;2.00;;;-1.50;97.30;;;;;;4987728;28;20995;-69
2024/01/29 05:34:45;;;;;;;1.37;1.27;;;-1.40;97.30;;;;;;4988988;28;20221;-68
2024/01/29 05:37:11;;;;;;;1.30;1.20;;;-1.40;97.30;;;;;;4993476;28;20284;-68
2024/01/29 05:39:36;;;;;;;1.70;1.53;;;-1.40;97.30;;;;;;4986796;28;20185;-69
2024/01/29 05:42:02;;;;;;;1.00;0.90;;;-1.50;97.30;;;;;;4989153;28;20213;-68
2024/01/29 05:44:27;;;;;;;1.23;1.13;;;-1.50;97.30;;;;;;4985744;28;20189;-68
2024/01/29 05:46:53;;;;;;;1.33;1.23;;;-1.50;97.30;;;;;;4991429;28;20190;-68
2024/01/29 05:49:18;;;;;;;1.37;1.37;;;-1.40;97.30;;;;;;4988157;28;20681;-68
2024/01/29 05:51:44;;;;;;;1.87;1.77;;;-1.30;97.30;;;;;;4984728;28;20243;-68
2024/01/29 05:54:10;;;;;;;1.33;1.23;;;-1.20;97.30;;;;;;4993157;28;20267;-69
2024/01/29 05:56:41;;;;;;;1.10;1.00;;;-1.10;97.30;;;;;;4992617;28;20504;-69
2024/01/29 05:59:06;;;;;;;2.30;1.80;;;-1.00;97.30;;;;;;4991715;28;20180;-69
2024/01/29 06:01:32;;;;;;;1.10;1.00;;;-0.90;97.30;;;;;;4987943;28;20985;-69
2024/01/29 06:04:22;;;;;;;1.50;1.40;;;-0.90;97.30;;;;;;5021746;23;20236;-89
2024/01/29 06:07:11;;;;;;;1.20;1.10;;;-0.90;97.30;;;;;;5013220;28;20176;-89
2024/01/29 06:09:44;;;;;;;1.23;1.10;;;-0.80;97.30;;;;;;5015813;28;21116;-88
2024/01/29 06:12:12;;;;;;;1.20;1.10;;;-0.70;97.30;;;;;;5025374;28;20455;-89
2024/01/29 06:14:40;;;;;;;1.10;1.00;;;-0.60;97.30;;;;;;5021918;28;20447;-88
2024/01/29 06:17:10;;;;;;;1.07;0.97;;;-0.60;97.30;;;;;;5022755;28;20423;-89
2024/01/29 06:19:41;;;;;;;2.60;1.30;;;-0.70;97.30;;;;;;5023853;28;20892;-88
2024/01/29 06:22:14;;;;;;;1.53;1.50;;;-0.70;97.30;;;;;;5022742;28;20510;-89
2024/01/29 06:24:40;;;;;;;2.43;1.93;;;-0.60;97.30;;;;;;5027979;28;20450;-89
2024/01/29 06:27:10;;;;;;;3.47;3.10;;;-0.60;97.30;;;;;;5022446;28;20807;-89
2024/01/29 06:29:36;;;;;;;1.20;1.10;;;-0.50;97.30;;;;;;5018886;28;20172;-88
2024/01/29 06:32:01;;;;;;;1.17;1.07;;;-0.60;97.30;;;;;;5018796;28;20528;-89
2024/01/29 06:34:27;;;;;;;1.37;1.27;;;-0.50;97.30;;;;;;5021332;28;20859;-89
2024/01/29 06:36:55;;;;;;;1.00;0.90;;;-0.60;97.30;;;;;;5024116;28;20179;-88
2024/01/29 06:39:21;;;;;;;1.47;1.37;;;-0.60;97.30;;;;;;5016838;28;20416;-89
2024/01/29 06:41:46;;;;;;;0.90;0.80;;;-0.50;97.30;;;;;;5025069;28;20503;-89
2024/01/29 06:44:12;;;;;;;2.37;2.20;;;-0.40;97.30;;;;;;5021193;28;20699;-88
2024/01/29 06:46:37;;;;;;;0.97;0.87;;;-0.40;97.30;;;;;;5021890;28;20643;-90
2024/01/29 06:49:03;;;;;;;1.50;1.40;;;-0.40;97.30;;;;;;5015025;28;20183;-90
2024/01/29 06:51:28;;;;;;;2.50;2.20;;;-0.30;97.30;;;;;;5013367;28;20610;-89
2024/01/29 06:53:54;;;;;;;1.53;1.40;;;-0.20;97.30;;;;;;5013208;28;20565;-89
2024/01/29 06:56:19;;;;;;;1.17;1.07;;;-0.10;97.30;;;;;;5016390;28;20256;-90
2024/01/29 06:58:45;;;;;;;1.97;1.30;;;-0.10;97.30;;;;;;5010611;28;20176;-89
2024/01/29 07:01:11;;;;;;;1.00;0.90;;;-0.10;97.30;;;;;;5014166;28;20502;-90
2024/01/29 07:03:36;;;;;;;1.10;1.00;;;-0.10;97.30;;;;;;5016332;28;20232;-89
2024/01/29 07:06:02;;;;;;;1.10;1.00;;;-0.10;97.30;;;;;;5021071;28;20191;-90
2024/01/29 07:08:27;;;;;;;2.23;2.03;;;-0.10;97.30;;;;;;5016197;28;20185;-90
2024/01/29 07:10:53;;;;;;;1.80;1.73;;;-0.10;97.30;;;;;;5018483;28;20189;-90
2024/01/29 07:13:19;;;;;;;1.10;1.00;;;-0.20;97.30;;;;;;5019554;28;20196;-90
2024/01/29 07:15:45;;;;;;;1.00;0.90;;;-0.20;97.30;;;;;;5014979;28;21744;-89
2024/01/29 07:18:10;;;;;;;2.07;1.93;;;-0.30;97.30;;;;;;5022122;28;20184;-90
2024/01/29 07:20:40;;;;;;;1.30;1.20;;;-0.30;97.30;;;;;;5014117;28;20787;-89
2024/01/29 07:23:06;;;;;;;4.50;1.37;;;-0.40;97.30;;;;;;5019777;28;20231;-88
2024/01/29 07:25:32;;;;;;;1.20;1.10;;;-0.30;97.30;;;;;;5020653;28;20423;-90
2024/01/29 07:28:04;;;;;;;1.43;1.20;;;-0.20;97.30;;;;;;5015802;28;20420;-87
2024/01/29 07:30:30;;;;;;;1.10;1.00;;;0.00;97.30;;;;;;5014964;28;20185;-89
2024/01/29 07:32:57;;;;;;;1.47;1.40;;;0.30;97.30;;;;;;5020977;28;20469;-89
2024/01/29 07:35:22;;;;;;;1.87;1.77;;;0.60;97.30;;;;;;5022295;28;20200;-90
2024/01/29 07:37:48;;;;;;;1.00;0.90;;;0.80;97.30;;;;;;5013481;28;20948;-89
2024/01/29 07:40:14;;;;;;;1.00;0.90;;;1.00;97.30;;;;;;5015704;28;20184;-89
2024/01/29 07:42:39;;;;;;;1.83;1.73;;;1.20;97.30;;;;;;5020094;28;20252;-90
2024/01/29 07:45:05;;;;;;;1.00;0.90;;;1.40;97.30;;;;;;5019675;28;20205;-90
2024/01/29 07:47:30;;;;;;;1.10;1.00;;;1.60;97.30;;;;;;5018958;28;20548;-90
2024/01/29 07:49:56;;;;;;;1.00;0.90;;;1.70;97.30;;;;;;5021930;28;20184;-90
2024/01/29 07:52:21;;;;;;;1.07;0.97;;;1.80;97.30;;;;;;5014639;28;20227;-90
2024/01/29 07:54:47;;;;;;;17.50;1.97;;;2.10;97.30;;;;;;5015573;28;20259;-90
2024/01/29 07:57:12;;;;;;;1.10;1.00;;;2.20;97.30;;;;;;5022723;28;20268;-90
2024/01/29 07:59:39;;;;;;;1.77;1.67;;;2.40;97.30;;;;;;5018019;28;20603;-90
2024/01/29 08:02:06;;;;;;;1.00;0.90;;;2.60;97.30;;;;;;5018219;28;20183;-89
2024/01/29 08:04:32;;;;;;;1.23;1.20;;;2.80;97.00;;;;;;5020223;28;20993;-89
2024/01/29 08:06:58;;;;;;;1.40;1.30;;;3.00;96.60;;;;;;5020560;28;20423;-90
2024/01/29 08:09:26;;;;;;;38.37;2.17;;;3.10;96.10;;;;;;5015475;28;20419;-89
2024/01/29 08:11:51;;;;;;;1.00;0.90;;;3.30;95.40;;;;;;5018526;28;21035;-89
2024/01/29 08:14:17;;;;;;;1.20;1.10;;;3.50;95.30;;;;;;5014559;28;20443;-90
2024/01/29 08:16:42;;;;;;;1.00;0.90;;;3.60;94.50;;;;;;5018257;28;20651;-89
2024/01/29 08:19:08;;;;;;;0.90;0.80;;;3.80;94.70;;;;;;5016982;28;20537;-87
2024/01/29 08:21:34;;;;;;;1.80;1.20;;;4.00;94.70;;;;;;5016336;28;20197;-88
2024/01/29 08:23:59;;;;;;;9.00;1.53;;;4.10;93.70;;;;;;5013968;28;20288;-87
2024/01/29 08:26:25;;;;;;;1.83;1.73;;;4.30;93.10;;;;;;5018308;28;20173;-87
2024/01/29 08:28:54;;;;;;;1.10;1.10;;;4.50;92.60;;;;;;5018919;28;20208;-89
2024/01/29 08:31:23;;;;;;;1.37;1.10;;;4.60;91.80;;;;;;5010892;28;20201;-88
2024/01/29 08:33:49;;;;;;;2.90;2.70;;;4.80;90.90;;;;;;5018258;28;20793;-88
2024/01/29 08:36:15;;;;;;;1.40;1.30;;;5.00;90.80;;;;;;5022920;28;20448;-87
2024/01/29 08:38:41;;;;;;;1.10;1.00;;;5.10;91.10;;;;;;5016772;28;20216;-87
2024/01/29 08:41:07;;;;;;;1.80;1.43;;;5.30;90.60;;;;;;5024667;28;20423;-88
2024/01/29 08:43:33;;;;;;;2.00;1.90;;;5.40;90.00;;;;;;5016151;28;20444;-86
2024/01/29 08:45:58;;;;;;;1.50;1.40;;;5.60;88.90;;;;;;5017706;28;20645;-87
2024/01/29 08:48:24;;;;;;;0.80;0.70;;;5.70;87.70;;;;;;5014155;28;20554;-88
2024/01/29 08:50:50;;;;;;;1.47;1.37;;;5.90;87.70;;;;;;5011850;28;20193;-89
2024/01/29 08:53:15;;;;;;;1.23;1.13;;;6.00;87.20;;;;;;5018009;28;20265;-87
2024/01/29 08:55:41;;;;;;;1.90;1.83;;;6.20;86.70;;;;;;5018529;28;20161;-87
2024/01/29 08:58:06;;;;;;;1.07;1.07;;;6.30;86.10;;;;;;5018662;28;20311;-86
2024/01/29 09:00:32;;;;;;;1.00;0.90;;;6.50;85.20;;;;;;5026928;28;20176;-87
2024/01/29 09:02:58;;;;;;;2.30;1.53;;;6.60;85.20;;;;;;5014638;28;20181;-87
2024/01/29 09:05:23;;;;;;;1.13;1.03;;;6.80;83.70;;;;;;5017903;28;20223;-87
2024/01/29 09:07:49;;;;;;;1.00;0.90;;;6.80;83.50;;;;;;5015453;28;20280;-85
2024/01/29 09:10:14;;;;;;;1.17;1.07;;;6.90;83.30;;;;;;5019545;28;20184;-87
2024/01/29 09:12:40;;;;;;;4.50;1.30;;;7.00;83.50;;;;;;5012785;28;20284;-87
2024/01/29 09:15:06;;;;;;;1.33;1.23;;;7.00;82.70;;;;;;5016269;28;20201;-86
2024/01/29 09:17:31;;;;;;;1.53;1.37;;;7.00;83.80;;;;;;5014239;28;20200;-87
2024/01/29 09:19:58;;;;;;;1.17;1.10;;;7.00;83.40;;;;;;5018887;28;20415;-86
2024/01/29 09:22:23;;;;;;;1.00;0.90;;;7.10;83.90;;;;;;5014878;28;20184;-87
2024/01/29 09:24:51;;;;;;;1.00;0.90;;;7.20;83.10;;;;;;5017051;28;20440;-87
2024/01/29 09:27:17;;;;;;;0.93;0.83;;;7.30;82.60;;;;;;5018432;28;20180;-86
2024/01/29 09:29:42;;;;;;;1.00;0.90;;;7.40;82.80;;;;;;5014235;28;20957;-87
2024/01/29 09:32:08;;;;;;;1.23;1.23;;;7.50;82.20;;;;;;5014511;28;20334;-87
2024/01/29 09:34:34;;;;;;;1.30;1.20;;;7.60;82.60;;;;;;5021861;28;20201;-86
2024/01/29 09:37:00;;;;;;;1.00;0.90;;;7.70;81.80;;;;;;5018943;28;20407;-87
2024/01/29 09:39:25;;;;;;;0.87;0.77;;;7.80;81.90;;;;;;5015846;28;20516;-88
2024/01/29 09:41:52;;;;;;;10.97;1.37;;;7.90;81.90;;;;;;5016017;28;20219;-88
2024/01/29 09:44:18;;;;;;;2.03;1.73;;;8.00;80.90;;;;;;5017162;28;20292;-89
2024/01/29 09:46:46;;;;;;;5.13;1.30;;;8.00;81.80;;;;;;5017978;28;20440;-89
2024/01/29 09:49:12;;;;;;;1.17;1.07;;;8.10;81.80;;;;;;5016331;28;20475;-88
2024/01/29 09:51:37;;;;;;;1.47;1.17;;;8.20;81.50;;;;;;5009827;28;20456;-87
2024/01/29 09:54:03;;;;;;;1.40;1.30;;;8.30;79.90;;;;;;5014825;28;20197;-88
2024/01/29 09:56:29;;;;;;;1.07;0.97;;;8.30;79.70;;;;;;5008304;28;20424;-87
2024/01/29 09:58:55;;;;;;;1.20;1.10;;;8.40;80.00;;;;;;5014272;28;20185;-88
2024/01/29 10:01:22;;;;;;;1.70;1.60;;;8.40;80.40;;;;;;5006928;28;20428;-88
2024/01/29 10:03:48;;;;;;;1.20;1.17;;;8.50;79.90;;;;;;5019991;28;20467;-88
2024/01/29 10:06:14;;;;;;;1.20;1.10;;;8.60;80.00;;;;;;5014072;28;20424;-88
2024/01/29 10:08:40;;;;;;;1.23;1.13;;;8.70;79.40;;;;;;5008386;28;20942;-89
2024/01/29 10:11:07;;;;;;;1.00;0.90;;;8.80;79.60;;;;;;5016173;28;20469;-88
2024/01/29 10:13:33;;;;;;;3.23;1.40;;;8.90;79.30;;;;;;5016950;28;20444;-88
2024/01/29 10:15:58;;;;;;;1.37;1.37;;;9.00;78.10;;;;;;5014784;28;20423;-87
2024/01/29 10:18:24;;;;;;;1.53;1.20;;;9.10;78.00;;;;;;5016209;28;20181;-87
2024/01/29 10:20:59;;;;;;;3.47;2.53;;;9.20;78.30;;;;;;5015830;28;20177;-88
2024/01/29 10:23:25;;;;;;;1.67;1.30;;;9.10;77.60;;;;;;5006347;28;20189;-87
2024/01/29 10:25:58;;;;;;;1.00;0.90;;;9.00;78.10;;;;;;5021532;28;20419;-88
2024/01/29 10:28:26;;;;;;;1.47;0.90;;;9.00;78.00;;;;;;5009528;28;20173;-88
2024/01/29 10:30:58;;;;;;;5.13;1.20;;;9.20;78.10;;;;;;5013669;28;20563;-88
2024/01/29 10:33:23;;;;;;;1.53;1.43;;;9.40;77.10;;;;;;5005704;28;20455;-88
2024/01/29 10:35:49;;;;;;;0.87;0.80;;;9.50;77.90;;;;;;5013519;28;20428;-88
2024/01/29 10:38:18;;;;;;;1.20;1.10;;;9.60;77.70;;;;;;5012729;28;20180;-88
2024/01/29 10:40:45;;;;;;;2.30;1.77;;;9.70;76.70;;;;;;5013872;28;20181;-88
2024/01/29 10:43:18;;;;;;;1.10;1.00;;;9.90;76.70;;;;;;5011687;28;20802;-88
2024/01/29 10:45:46;;;;;;;1.50;1.30;;;9.90;76.30;;;;;;5012636;28;20428;-87
2024/01/29 10:48:22;;;;;;;2.73;1.60;;;10.00;76.30;;;;;;5012903;28;20416;-88
2024/01/29 10:50:49;;;;;;;1.47;1.23;;;10.10;76.40;;;;;;5014762;28;20462;-88
2024/01/29 10:53:16;;;;;;;1.50;1.43;;;10.20;75.30;;;;;;5011749;28;20468;-88
2024/01/29 10:55:43;;;;;;;1.03;0.93;;;10.30;75.10;;;;;;5013365;28;20486;-88
2024/01/29 10:58:12;;;;;;;1.80;1.70;;;10.30;74.70;;;;;;5014853;28;20430;-88
2024/01/29 11:00:40;;;;;;;1.10;1.00;;;10.30;74.50;;;;;;5023141;28;20847;-88
2024/01/29 11:03:08;;;;;;;1.13;1.03;;;10.40;75.00;;;;;;5021619;28;20446;-88
2024/01/29 11:05:34;;;;;;;7.80;1.57;;;10.50;74.70;;;;;;5005681;28;20440;-88
2024/01/29 11:08:03;;;;;;;2.00;1.47;;;10.70;74.40;;;;;;5019138;28;20517;-87
2024/01/29 11:10:30;;;;;;;3.10;2.30;;;10.80;73.40;;;;;;5018765;28;20428;-88
2024/01/29 11:12:58;;;;;;;24.30;8.70;;;10.80;72.90;;;;;;5027902;28;20467;-87
2024/01/29 11:15:24;;;;;;;4.93;3.50;;;10.80;72.60;;;;;;5029678;28;20431;-87
2024/01/29 11:17:49;;;;;;;5.30;2.70;;;10.90;72.90;;;;;;5016827;28;21024;-88
2024/01/29 11:20:16;;;;;;;1.10;1.07;;;10.90;72.20;;;;;;5008370;28;20415;-88
2024/01/29 11:22:51;;;;;;;13.60;3.87;;;11.00;72.20;;;;;;5014583;28;20224;-87
2024/01/29 11:25:22;;;;;;;1.13;1.10;;;11.10;72.90;;;;;;5017288;28;20423;-87
2024/01/29 11:27:49;;;;;;;1.20;1.10;;;11.30;72.70;;;;;;5017615;28;20455;-88
2024/01/29 11:30:20;;;;;;;23.23;9.77;;;11.40;72.20;;;;;;5016237;28;20435;-88
2024/01/29 11:32:47;;;;;;;3.83;3.20;;;11.50;72.30;;;;;;5013737;28;20952;-87
2024/01/29 11:35:15;;;;;;;2.07;1.93;;;11.50;71.90;;;;;;5017433;28;20423;-88
2024/01/29 11:37:41;;;;;;;1.07;0.97;;;11.60;72.50;;;;;;5015943;28;20420;-88
2024/01/29 11:40:30;;;;;;;1.20;1.10;;;11.70;72.30;;;;;;5018005;28;20420;-88
2024/01/29 11:42:56;;;;;;;1.73;1.10;;;11.90;72.10;;;;;;5017967;28;20510;-88
2024/01/29 11:45:23;;;;;;;1.10;1.00;;;12.00;71.90;;;;;;5016012;28;20511;-88
2024/01/29 11:47:49;;;;;;;7.23;2.80;;;12.10;71.10;;;;;;5015146;28;20185;-87
2024/01/29 11:50:15;;;;;;;0.90;0.80;;;12.30;71.80;;;;;;5014236;28;20475;-88
2024/01/29 11:52:40;;;;;;;0.97;0.87;;;12.50;71.50;;;;;;5011973;28;20209;-87
2024/01/29 11:55:06;;;;;;;1.00;0.90;;;12.50;70.90;;;;;;5009912;28;20260;-88
2024/01/29 11:57:32;;;;;;;1.20;1.10;;;12.60;71.00;;;;;;5016692;28;20268;-88
2024/01/29 12:00:00;;;;;;;1.27;1.17;;;12.70;70.70;;;;;;5014829;28;20185;-88
2024/01/29 12:02:26;;;;;;;1.30;0.90;;;12.90;71.40;;;;;;5014549;28;20455;-87
2024/01/29 12:04:52;;;;;;;4.17;1.30;;;12.90;69.80;;;;;;5016190;28;20460;-87
2024/01/29 12:07:21;;;;;;;2.60;1.47;;;13.00;70.60;;;;;;5015031;28;20420;-88
2024/01/29 12:09:47;;;;;;;4.33;1.00;;;13.10;71.00;;;;;;5015057;28;20188;-87
2024/01/29 12:12:12;;;;;;;4.50;1.67;;;13.20;70.30;;;;;;5014761;28;20466;-88
2024/01/29 12:14:38;;;;;;;1.53;1.43;;;13.30;70.20;;;;;;5020711;28;20195;-88
2024/01/29 12:17:06;;;;;;;0.97;0.87;;;13.30;69.40;;;;;;5015843;28;20244;-88
2024/01/29 12:19:32;;;;;;;1.27;1.17;;;13.60;69.90;;;;;;5014485;28;20691;-87
2024/01/29 12:22:00;;;;;;;1.20;1.10;;;13.60;69.70;;;;;;5013729;28;20419;-87
2024/01/29 12:24:26;;;;;;;2.93;2.40;;;13.70;69.30;;;;;;5013711;28;20444;-87
2024/01/29 12:26:53;;;;;;;2.17;1.47;;;13.70;69.00;;;;;;5013065;28;20511;-88
2024/01/29 12:29:19;;;;;;;1.33;1.23;;;13.80;69.30;;;;;;5013116;28;20421;-88
2024/01/29 12:31:44;;;;;;;1.10;1.10;;;14.00;69.00;;;;;;5008322;28;20464;-89
2024/01/29 12:34:19;;;;;;;0.90;0.80;;;14.10;68.50;;;;;;5012868;28;20454;-88
2024/01/29 12:36:51;;;;;;;1.10;1.00;;;13.90;68.40;;;;;;5013880;28;20712;-88
2024/01/29 12:39:17;;;;;;;1.10;1.07;;;13.90;68.70;;;;;;5013324;28;20416;-88
2024/01/29 12:41:42;;;;;;;2.00;1.40;;;14.00;68.50;;;;;;5007461;28;20425;-88
2024/01/29 12:44:10;;;;;;;1.53;1.47;;;14.10;68.60;;;;;;5013741;28;20587;-86
2024/01/29 12:46:35;;;;;;;3.57;2.73;;;14.20;68.40;;;;;;5014140;28;20169;-88
2024/01/29 12:49:02;;;;;;;1.30;1.20;;;14.30;68.70;;;;;;5013767;28;20420;-88
2024/01/29 12:51:28;;;;;;;1.53;0.90;;;14.50;68.40;;;;;;5005809;28;20239;-88
2024/01/29 12:53:56;;;;;;;1.93;1.83;;;14.70;68.30;;;;;;5014551;28;20436;-87
2024/01/29 12:56:23;;;;;;;1.27;1.20;;;14.80;68.20;;;;;;5013439;28;20245;-88
2024/01/29 12:58:48;;;;;;;1.87;1.53;;;14.90;67.70;;;;;;5015093;28;20562;-88
2024/01/29 13:01:14;;;;;;;1.30;1.30;;;14.80;67.70;;;;;;5012349;28;20427;-88
2024/01/29 13:03:40;;;;;;;1.20;1.13;;;14.80;68.10;;;;;;5013097;28;20251;-88
2024/01/29 13:06:06;;;;;;;2.57;2.27;;;14.80;68.20;;;;;;5013736;28;20424;-88
2024/01/29 13:08:32;;;;;;;1.40;1.30;;;14.80;67.70;;;;;;5012929;28;20174;-88
2024/01/29 13:10:57;;;;;;;5.07;2.13;;;14.80;67.90;;;;;;5013722;28;20181;-88
2024/01/29 13:13:23;;;;;;;1.70;1.60;;;14.80;68.10;;;;;;5012379;28;20478;-88
2024/01/29 13:15:52;;;;;;;4.37;2.80;;;14.90;68.40;;;;;;5012029;28;20173;-88
2024/01/29 13:18:18;;;;;;;4.80;1.77;;;14.80;67.80;;;;;;5004673;28;20251;-88
2024/01/29 13:20:44;;;;;;;2.40;1.57;;;14.80;68.00;;;;;;5011497;28;20945;-87
2024/01/29 13:23:09;;;;;;;5.70;1.93;;;14.70;68.00;;;;;;5012887;28;20443;-88
2024/01/29 13:25:35;;;;;;;1.50;1.43;;;14.60;67.80;;;;;;5012134;28;20184;-87
2024/01/29 13:28:04;;;;;;;6.03;1.40;;;14.40;67.60;;;;;;5012300;28;20224;-88
2024/01/29 13:30:29;;;;;;;1.07;0.97;;;14.30;67.70;;;;;;5011360;28;20416;-88
2024/01/29 13:32:55;;;;;;;1.87;1.77;;;14.40;68.50;;;;;;5012126;28;20528;-87
2024/01/29 13:35:21;;;;;;;5.33;2.00;;;14.40;68.60;;;;;;5021813;28;20297;-88
2024/01/29 13:37:47;;;;;;;1.93;1.87;;;14.30;68.60;;;;;;5015440;28;20181;-87
2024/01/29 13:40:12;;;;;;;0.90;0.90;;;14.10;69.30;;;;;;5007753;28;20430;-88
2024/01/29 13:42:38;;;;;;;2.00;1.90;;;14.00;69.70;;;;;;5006331;28;20622;-88
2024/01/29 13:45:04;;;;;;;1.10;1.00;;;13.80;69.60;;;;;;5010138;28;20201;-87
2024/01/29 13:47:30;;;;;;;0.97;0.90;;;13.80;69.70;;;;;;5010383;28;20185;-87
2024/01/29 13:49:55;;;;;;;1.43;0.90;;;13.90;69.90;;;;;;5015245;28;20626;-86
2024/01/29 13:52:21;;;;;;;1.53;1.37;;;13.90;69.70;;;;;;5021572;28;20671;-87
2024/01/29 13:54:46;;;;;;;1.00;0.90;;;14.00;69.90;;;;;;5019989;28;20283;-87
2024/01/29 13:57:12;;;;;;;1.07;1.00;;;13.80;69.60;;;;;;5028246;28;20675;-87
2024/01/29 13:59:38;;;;;;;1.83;1.37;;;13.70;69.20;;;;;;5013471;28;20169;-87
2024/01/29 14:02:04;;;;;;;1.10;1.00;;;13.60;70.10;;;;;;5013136;28;20181;-87
2024/01/29 14:04:29;;;;;;;1.20;1.03;;;13.60;70.30;;;;;;5019611;28;20229;-87
2024/01/29 14:06:57;;;;;;;1.10;0.90;;;13.60;70.80;;;;;;5012279;28;20181;-85
2024/01/29 14:09:22;;;;;;;1.67;1.63;;;13.40;70.40;;;;;;5019788;28;20715;-87
2024/01/29 14:11:48;;;;;;;2.17;2.00;;;13.30;71.20;;;;;;5018828;28;20462;-88
2024/01/29 14:14:14;;;;;;;2.13;1.37;;;13.40;71.40;;;;;;5023038;28;20204;-87
2024/01/29 14:16:40;;;;;;;1.83;1.77;;;13.40;71.40;;;;;;5021292;28;20470;-87
2024/01/29 14:19:05;;;;;;;1.17;1.07;;;13.40;71.90;;;;;;5014616;28;20189;-86
2024/01/29 14:21:31;;;;;;;1.40;1.30;;;13.40;72.60;;;;;;5023510;28;20181;-86
2024/01/29 14:23:56;;;;;;;1.77;1.57;;;13.30;72.50;;;;;;5031386;28;20200;-87
2024/01/29 14:26:22;;;;;;;2.17;1.43;;;13.10;72.70;;;;;;5024958;28;20191;-87
2024/01/29 14:28:47;;;;;;;1.93;1.83;;;12.90;72.70;;;;;;5015803;28;20188;-87
2024/01/29 14:31:13;;;;;;;4.20;2.50;;;13.00;73.40;;;;;;5017813;28;20603;-84
2024/01/29 14:33:41;;;;;;;1.23;1.13;;;13.10;73.50;;;;;;5029445;28;20200;-88
2024/01/29 14:36:06;;;;;;;1.77;1.10;;;13.10;73.70;;;;;;5022540;28;20185;-87
2024/01/29 14:38:32;;;;;;;1.77;1.67;;;13.00;73.30;;;;;;5035120;28;20435;-87
2024/01/29 14:40:58;;;;;;;2.07;1.93;;;12.90;73.30;;;;;;5019602;28;20181;-86
2024/01/29 14:43:23;;;;;;;1.70;1.60;;;12.80;73.50;;;;;;5042180;28;20258;-87
2024/01/29 14:45:49;;;;;;;2.17;1.87;;;12.50;73.60;;;;;;5029409;28;20189;-87
2024/01/29 14:48:14;;;;;;;1.67;1.43;;;12.30;74.10;;;;;;5025286;28;20258;-86
2024/01/29 14:50:40;;;;;;;1.50;1.40;;;12.10;74.60;;;;;;5035095;28;20268;-87
2024/01/29 14:53:05;;;;;;;1.20;1.10;;;12.00;74.50;;;;;;5035836;28;20220;-87
2024/01/29 14:55:32;;;;;;;1.10;1.10;;;11.90;74.60;;;;;;5028983;28;20238;-88
2024/01/29 14:57:57;;;;;;;1.30;1.20;;;11.80;75.10;;;;;;5027189;28;20206;-85
2024/01/29 15:00:24;;;;;;;1.27;1.00;;;11.70;75.20;;;;;;5023345;28;20408;-86
2024/01/29 15:02:50;;;;;;;0.90;0.80;;;11.70;75.30;;;;;;5024041;28;20193;-86
2024/01/29 15:05:15;;;;;;;8.53;1.30;;;11.70;75.30;;;;;;5022396;28;20459;-86
2024/01/29 15:07:41;;;;;;;1.50;1.43;;;11.60;75.30;;;;;;5025426;28;20657;-86
2024/01/29 15:10:08;;;;;;;1.93;1.83;;;11.50;75.90;;;;;;5016085;28;20664;-86
2024/01/29 15:12:41;;;;;;;1.07;0.97;;;11.40;75.90;;;;;;5020930;28;20579;-87
2024/01/29 15:15:07;;;;;;;1.10;1.00;;;11.40;76.40;;;;;;5022134;28;20474;-85
2024/01/29 15:17:33;;;;;;;2.50;1.10;;;11.30;76.40;;;;;;5014526;28;20419;-87
2024/01/29 15:20:00;;;;;;;1.23;1.13;;;11.20;76.70;;;;;;5022819;28;20419;-86
2024/01/29 15:22:26;;;;;;;1.00;0.90;;;11.10;77.20;;;;;;5014222;28;20956;-87
2024/01/29 15:24:56;;;;;;;4.50;1.57;;;11.00;77.20;;;;;;5015421;28;20432;-87
2024/01/29 15:27:24;;;;;;;1.10;1.00;;;11.00;77.30;;;;;;5020870;28;20177;-88
2024/01/29 15:29:50;;;;;;;1.53;1.43;;;10.90;77.60;;;;;;5065818;23;20530;-72
2024/01/29 15:32:15;;;;;;;1.10;1.00;;;10.90;77.60;;;;;;5018080;28;20481;-72
2024/01/29 15:34:47;;;;;;;2.10;1.40;;;10.80;78.00;;;;;;5015935;28;20185;-72
2024/01/29 15:37:17;;;;;;;1.70;1.60;;;10.70;78.50;;;;;;5014725;28;20189;-72
2024/01/29 15:39:43;;;;;;;1.50;1.40;;;10.70;78.50;;;;;;5007558;28;20499;-72
2024/01/29 15:42:14;;;;;;;1.33;1.20;;;10.60;78.70;;;;;;5026393;28;20938;-71
2024/01/29 15:44:46;;;;;;;1.20;1.13;;;10.50;78.80;;;;;;5023587;28;20200;-73
2024/01/29 15:47:13;;;;;;;0.97;0.87;;;10.50;78.90;;;;;;5028648;28;20445;-74
2024/01/29 15:49:40;;;;;;;1.70;1.60;;;10.50;79.00;;;;;;5016739;28;20419;-75
2024/01/29 15:52:11;;;;;;;1.30;1.20;;;10.40;79.20;;;;;;5020038;28;20651;-75
2024/01/29 15:54:36;;;;;;;1.40;1.30;;;10.40;79.20;;;;;;5022016;28;20434;-75
2024/01/29 15:57:07;;;;;;;1.73;1.63;;;10.40;79.60;;;;;;5021673;28;20932;-75
2024/01/29 15:59:34;;;;;;;1.57;1.23;;;10.30;79.80;;;;;;5014230;28;20315;-74
2024/01/29 16:02:05;;;;;;;1.20;1.10;;;10.20;80.00;;;;;;5030015;28;21038;-74
2024/01/29 16:04:31;;;;;;;1.20;1.10;;;10.20;80.10;;;;;;5007543;28;20436;-74
2024/01/29 16:06:56;;;;;;;1.73;1.63;;;10.20;80.40;;;;;;5013378;28;20858;-73
2024/01/29 16:09:22;;;;;;;2.03;1.77;;;10.10;80.50;;;;;;5012008;28;20942;-74
2024/01/29 16:11:48;;;;;;;2.20;1.57;;;10.10;80.80;;;;;;5027422;28;20216;-74
2024/01/29 16:14:13;;;;;;;1.67;1.23;;;10.00;81.00;;;;;;5030147;28;20419;-74
2024/01/29 16:16:39;;;;;;;4.93;1.33;;;10.00;81.10;;;;;;5017840;28;20193;-73
2024/01/29 16:19:05;;;;;;;1.50;1.40;;;10.00;81.30;;;;;;5018068;28;20172;-74
2024/01/29 16:21:30;;;;;;;1.80;1.70;;;10.00;81.50;;;;;;5014256;28;20539;-74
2024/01/29 16:23:57;;;;;;;1.20;1.10;;;9.90;81.70;;;;;;5022539;28;20552;-74
2024/01/29 16:26:22;;;;;;;1.27;1.17;;;9.80;82.00;;;;;;5009549;28;20199;-75
2024/01/29 16:28:48;;;;;;;2.53;2.30;;;9.70;82.50;;;;;;5009293;28;20432;-73
2024/01/29 16:31:14;;;;;;;1.10;1.00;;;9.50;82.80;;;;;;5007375;28;20308;-74
2024/01/29 16:33:39;;;;;;;6.20;2.40;;;9.40;83.10;;;;;;4992738;28;20188;-74
2024/01/29 16:36:05;;;;;;;1.20;1.10;;;9.30;83.50;;;;;;5018699;28;20185;-73
2024/01/29 16:38:31;;;;;;;2.20;1.90;;;9.30;83.60;;;;;;5022062;28;20595;-73
2024/01/29 16:40:56;;;;;;;2.03;1.30;;;9.20;83.80;;;;;;5029361;28;20439;-74
2024/01/29 16:43:22;;;;;;;1.30;1.20;;;9.20;84.10;;;;;;5019874;28;20199;-74
2024/01/29 16:45:47;;;;;;;1.53;1.43;;;9.20;84.20;;;;;;5024404;28;20238;-74
2024/01/29 16:48:13;;;;;;;2.17;1.93;;;9.10;84.40;;;;;;5019954;28;20275;-73
2024/01/29 16:50:39;;;;;;;1.60;1.50;;;9.10;84.50;;;;;;5020460;28;20204;-74
2024/01/29 16:53:05;;;;;;;5.50;3.10;;;9.10;84.70;;;;;;5021163;28;20208;-74
2024/01/29 16:55:31;;;;;;;1.67;1.47;;;9.10;84.80;;;;;;5020425;28;20188;-74
2024/01/29 16:57:57;;;;;;;2.10;1.63;;;9.10;85.00;;;;;;5022184;28;20424;-73
2024/01/29 17:00:22;;;;;;;1.20;1.10;;;9.00;85.30;;;;;;5016901;28;20209;-73
2024/01/29 17:02:48;;;;;;;1.27;1.17;;;9.00;85.40;;;;;;5008711;28;20185;-73
2024/01/29 17:05:13;;;;;;;1.50;1.40;;;8.90;85.60;;;;;;5000515;28;20196;-73
2024/01/29 17:07:44;;;;;;;1.27;1.20;;;8.90;85.90;;;;;;5014431;28;20776;-73
2024/01/29 17:10:09;;;;;;;1.10;1.00;;;8.80;86.10;;;;;;5021599;28;20196;-73
2024/01/29 17:12:35;;;;;;;1.67;1.57;;;8.80;86.20;;;;;;5017023;28;20845;-73
2024/01/29 17:15:00;;;;;;;2.20;1.70;;;8.80;86.40;;;;;;5017172;28;20192;-73
2024/01/29 17:17:26;;;;;;;1.50;1.40;;;8.80;86.40;;;;;;5001646;28;20287;-72
2024/01/29 17:19:51;;;;;;;1.60;1.60;;;8.80;86.20;;;;;;5024025;28;20180;-73
2024/01/29 17:22:17;;;;;;;1.43;1.33;;;8.80;86.20;;;;;;5019913;28;20204;-73
2024/01/29 17:24:44;;;;;;;3.27;3.07;;;8.80;86.20;;;;;;5023910;28;20185;-73
2024/01/29 17:27:09;;;;;;;2.40;1.70;;;8.80;86.30;;;;;;5008877;28;20181;-73
2024/01/29 17:29:35;;;;;;;3.67;1.80;;;8.70;86.60;;;;;;5009413;28;20459;-73
2024/01/29 17:32:03;;;;;;;1.60;1.50;;;8.50;87.10;;;;;;5008432;28;20213;-73
2024/01/29 17:34:28;;;;;;;2.40;1.60;;;8.20;87.70;;;;;;5015403;28;20203;-73
2024/01/29 17:36:54;;;;;;;1.20;1.10;;;7.80;88.40;;;;;;5016695;28;20466;-73
2024/01/29 17:39:20;;;;;;;2.13;1.63;;;7.60;89.30;;;;;;5016676;28;20177;-73
2024/01/29 17:41:45;;;;;;;1.90;1.80;;;7.40;89.70;;;;;;5014259;28;20236;-73
2024/01/29 17:44:11;;;;;;;2.33;1.47;;;7.30;90.10;;;;;;5020395;28;20184;-73
2024/01/29 17:46:36;;;;;;;3.60;2.07;;;7.20;90.60;;;;;;5029749;28;20176;-73